createdAt,value
2018-12-06T00:01:15.488Z,30.93
2018-12-06T00:03:42.264Z,25.43
2018-12-06T00:06:09.023Z,24.60
2018-12-06T00:08:35.800Z,24.23
2018-12-06T00:11:02.565Z,27.70
2018-12-06T00:13:29.348Z,25.40
2018-12-06T00:15:56.105Z,31.27
2018-12-06T00:18:22.888Z,29.23
2018-12-06T00:20:49.658Z,30.93
2018-12-06T00:23:16.442Z,34.57
2018-12-06T00:25:43.312Z,30.77
2018-12-06T00:28:10.082Z,32.63
2018-12-06T00:30:39.425Z,29.50
2018-12-06T00:33:06.200Z,33.10
2018-12-06T00:35:33.004Z,38.57
2018-12-06T00:37:59.781Z,38.83
2018-12-06T00:40:26.561Z,33.77
2018-12-06T00:42:53.321Z,32.77
2018-12-06T00:45:20.109Z,35.00
2018-12-06T00:47:46.872Z,36.80
2018-12-06T00:50:13.660Z,35.10
2018-12-06T00:52:41.529Z,37.58
2018-12-06T00:55:08.309Z,30.17
2018-12-06T00:57:35.068Z,31.90
2018-12-06T01:00:02.148Z,39.03
2018-12-06T01:02:28.898Z,36.73
2018-12-06T01:04:55.676Z,29.37
2018-12-06T01:07:22.440Z,28.50
2018-12-06T01:09:49.260Z,27.30
2018-12-06T01:12:16.133Z,29.53
2018-12-06T01:14:42.905Z,27.20
2018-12-06T01:17:09.693Z,28.80
2018-12-06T01:19:36.500Z,30.30
2018-12-06T01:22:03.416Z,35.73
2018-12-06T01:24:30.261Z,31.40
2018-12-06T01:26:57.029Z,34.83
2018-12-06T01:29:23.808Z,29.70
2018-12-06T01:31:50.569Z,36.07
2018-12-06T01:34:17.345Z,33.30
2018-12-06T01:36:44.112Z,30.10
2018-12-06T01:39:10.889Z,31.53
2018-12-06T01:41:37.652Z,29.63
2018-12-06T01:44:04.412Z,39.17
2018-12-06T01:46:31.204Z,28.53
2018-12-06T01:48:57.964Z,32.30
2018-12-06T01:51:24.740Z,32.40
2018-12-06T01:53:51.509Z,32.50
2018-12-06T01:56:18.316Z,38.10
2018-12-06T01:58:45.096Z,28.27
2018-12-06T02:01:11.889Z,37.70
2018-12-06T02:03:38.648Z,29.47
2018-12-06T02:06:05.435Z,35.80
2018-12-06T02:08:32.251Z,33.30
2018-12-06T02:10:59.116Z,35.30
2018-12-06T02:13:25.889Z,45.43
2018-12-06T02:15:52.663Z,39.23
2018-12-06T02:18:19.428Z,42.17
2018-12-06T02:20:46.221Z,53.40
2018-12-06T02:23:13.012Z,57.38
2018-12-06T02:25:39.800Z,46.50
2018-12-06T02:28:06.561Z,49.37
2018-12-06T02:30:33.351Z,40.53
2018-12-06T02:33:00.161Z,45.80
2018-12-06T02:35:26.938Z,43.28
2018-12-06T02:37:53.690Z,45.30
2018-12-06T02:40:20.473Z,38.47
2018-12-06T02:42:47.243Z,41.60
2018-12-06T02:45:14.040Z,37.63
2018-12-06T02:47:40.807Z,41.70
2018-12-06T02:50:07.595Z,41.93
2018-12-06T02:52:34.349Z,34.97
2018-12-06T02:55:01.162Z,37.10
2018-12-06T02:57:27.913Z,35.50
2018-12-06T02:59:54.680Z,36.30
2018-12-06T03:02:21.459Z,37.10
2018-12-06T03:04:48.217Z,34.50
2018-12-06T03:07:15.094Z,41.43
2018-12-06T03:09:41.849Z,41.33
2018-12-06T03:12:08.634Z,35.17
2018-12-06T03:14:35.404Z,35.63
2018-12-06T03:17:02.189Z,33.87
2018-12-06T03:19:28.943Z,38.27
2018-12-06T03:21:55.735Z,31.20
2018-12-06T03:24:22.489Z,32.97
2018-12-06T03:26:49.345Z,32.77
2018-12-06T03:29:16.098Z,34.43
2018-12-06T03:31:42.906Z,32.67
2018-12-06T03:34:09.670Z,35.23
2018-12-06T03:36:36.449Z,35.67
2018-12-06T03:39:06.160Z,45.30
2018-12-06T03:41:32.937Z,42.07
2018-12-06T03:43:59.693Z,39.90
2018-12-06T03:46:26.477Z,43.17
2018-12-06T03:48:53.367Z,36.77
2018-12-06T03:51:20.137Z,33.33
2018-12-06T03:53:46.897Z,34.90
2018-12-06T03:56:13.726Z,38.47
2018-12-06T03:58:40.481Z,37.90
2018-12-06T04:01:07.261Z,36.63
2018-12-06T04:03:34.016Z,36.60
2018-12-06T04:06:00.797Z,44.97
2018-12-06T04:08:28.140Z,45.23
2018-12-06T04:10:54.922Z,39.70
2018-12-06T04:13:21.686Z,37.27
2018-12-06T04:15:48.451Z,43.10
2018-12-06T04:18:15.253Z,33.83
2018-12-06T04:20:42.002Z,49.08
2018-12-06T04:23:08.783Z,40.60
2018-12-06T04:25:35.540Z,39.47
2018-12-06T04:28:02.321Z,38.10
2018-12-06T04:30:29.081Z,35.77
2018-12-06T04:32:55.862Z,35.50
2018-12-06T04:35:22.626Z,37.80
2018-12-06T04:37:49.404Z,32.37
2018-12-06T04:40:16.165Z,35.13
2018-12-06T04:42:42.940Z,34.70
2018-12-06T04:45:10.582Z,29.53
2018-12-06T04:47:37.669Z,36.27
2018-12-06T04:50:04.454Z,38.27
2018-12-06T04:52:31.243Z,40.58
2018-12-06T04:54:58.136Z,45.65
2018-12-06T04:57:24.912Z,39.20
2018-12-06T04:59:51.673Z,41.40
2018-12-06T05:02:18.470Z,40.90
2018-12-06T05:04:45.216Z,39.83
2018-12-06T05:07:11.994Z,39.13
2018-12-06T05:09:38.744Z,41.80
2018-12-06T05:12:06.017Z,38.47
2018-12-06T05:14:32.761Z,47.05
2018-12-06T05:16:59.608Z,46.00
2018-12-06T05:19:26.401Z,49.83
2018-12-06T05:21:53.256Z,50.13
2018-12-06T05:24:20.112Z,48.33
2018-12-06T05:26:46.921Z,38.20
2018-12-06T05:29:13.700Z,39.50
2018-12-06T05:31:40.476Z,41.97
2018-12-06T05:34:07.245Z,43.37
2018-12-06T05:36:34.000Z,42.77
2018-12-06T05:39:00.785Z,42.97
2018-12-06T05:41:27.544Z,44.17
2018-12-06T05:43:54.320Z,39.63
2018-12-06T05:46:21.083Z,50.10
2018-12-06T05:48:47.852Z,51.83
2018-12-06T05:51:14.621Z,50.77
2018-12-06T05:53:41.390Z,50.00
2018-12-06T05:56:08.169Z,48.33
2018-12-06T05:58:34.968Z,50.80
2018-12-06T06:01:01.740Z,54.57
2018-12-06T06:03:28.517Z,53.57
2018-12-06T06:05:55.303Z,50.03
2018-12-06T06:08:22.077Z,51.17
2018-12-06T06:10:48.845Z,46.87
2018-12-06T06:13:15.630Z,47.83
2018-12-06T06:15:42.390Z,42.60
2018-12-06T06:18:09.164Z,48.03
2018-12-06T06:20:35.924Z,44.00
2018-12-06T06:23:02.701Z,45.07
2018-12-06T06:25:29.472Z,44.90
2018-12-06T06:27:56.265Z,52.08
2018-12-06T06:30:23.029Z,46.80
2018-12-06T06:32:49.813Z,43.10
2018-12-06T06:35:16.572Z,40.63
2018-12-06T06:37:44.441Z,41.43
2018-12-06T06:40:11.210Z,37.33
2018-12-06T06:42:38.004Z,40.97
2018-12-06T06:45:04.876Z,46.75
2018-12-06T06:47:31.649Z,43.27
2018-12-06T06:49:58.408Z,37.53
2018-12-06T06:52:25.177Z,39.80
2018-12-06T06:54:51.980Z,36.47
2018-12-06T06:57:18.763Z,35.70
2018-12-06T06:59:45.546Z,35.73
2018-12-06T07:02:12.316Z,35.00
2018-12-06T07:04:39.101Z,43.50
2018-12-06T07:07:05.865Z,39.40
2018-12-06T07:09:32.759Z,33.93
2018-12-06T07:11:59.464Z,42.17
2018-12-06T07:14:26.257Z,35.13
2018-12-06T07:16:53.034Z,38.63
2018-12-06T07:19:19.804Z,38.37
2018-12-06T07:21:46.573Z,36.50
2018-12-06T07:24:13.349Z,34.30
2018-12-06T07:26:40.186Z,30.40
2018-12-06T07:29:06.945Z,28.73
2018-12-06T07:31:33.711Z,28.80
2018-12-06T07:34:00.492Z,34.50
2018-12-06T07:36:27.253Z,26.77
2018-12-06T07:38:54.040Z,28.63
2018-12-06T07:41:20.792Z,34.23
2018-12-06T07:43:47.593Z,31.40
2018-12-06T07:46:14.332Z,27.57
2018-12-06T07:48:41.121Z,24.27
2018-12-06T07:51:07.880Z,32.20
2018-12-06T07:53:34.656Z,28.10
2018-12-06T07:56:01.482Z,25.77
2018-12-06T07:58:28.306Z,30.80
2018-12-06T08:00:55.084Z,26.37
2018-12-06T08:03:21.861Z,27.50
2018-12-06T08:05:48.624Z,25.90
2018-12-06T08:08:15.409Z,27.93
2018-12-06T08:10:42.229Z,24.47
2018-12-06T08:13:09.025Z,27.48
2018-12-06T08:15:35.855Z,30.60
2018-12-06T08:18:02.568Z,27.63
2018-12-06T08:20:29.354Z,29.70
2018-12-06T08:22:56.140Z,32.93
2018-12-06T08:25:22.917Z,21.47
2018-12-06T08:27:49.692Z,23.30
2018-12-06T08:30:16.468Z,28.10
2018-12-06T08:32:43.280Z,27.20
2018-12-06T08:35:10.064Z,29.07
2018-12-06T08:37:36.827Z,26.10
2018-12-06T08:40:04.528Z,29.67
2018-12-06T08:42:31.281Z,28.50
2018-12-06T08:44:58.145Z,25.10
2018-12-06T08:47:24.904Z,26.07
2018-12-06T08:49:51.684Z,23.97
2018-12-06T08:52:18.446Z,27.03
2018-12-06T08:54:45.238Z,23.67
2018-12-06T08:57:12.121Z,23.53
2018-12-06T08:59:38.911Z,25.43
2018-12-06T09:02:05.681Z,22.47
2018-12-06T09:04:32.546Z,29.97
2018-12-06T09:06:59.293Z,23.27
2018-12-06T09:09:26.144Z,26.20
2018-12-06T09:11:52.910Z,24.17
2018-12-06T09:14:19.673Z,25.97
2018-12-06T09:16:46.434Z,27.33
2018-12-06T09:19:14.735Z,24.07
2018-12-06T09:21:39.948Z,25.03
2018-12-06T09:24:06.728Z,26.10
2018-12-06T09:26:33.480Z,29.57
2018-12-06T09:29:00.245Z,28.67
2018-12-06T09:31:27.009Z,28.00
2018-12-06T09:34:01.668Z,32.30
2018-12-06T09:36:28.437Z,26.67
2018-12-06T09:38:55.189Z,27.20
2018-12-06T09:41:21.980Z,27.67
2018-12-06T09:43:48.740Z,25.77
2018-12-06T09:46:15.522Z,22.60
2018-12-06T09:48:42.301Z,24.23
2018-12-06T09:51:09.082Z,26.40
2018-12-06T09:53:35.833Z,27.03
2018-12-06T09:56:02.601Z,28.80
2018-12-06T09:58:29.362Z,25.67
2018-12-06T10:00:56.141Z,20.70
2018-12-06T10:03:22.917Z,25.32
2018-12-06T10:05:49.705Z,18.93
2018-12-06T10:08:16.457Z,25.95
2018-12-06T10:10:43.224Z,23.90
2018-12-06T10:13:09.982Z,26.00
2018-12-06T10:15:36.757Z,19.43
2018-12-06T10:18:03.525Z,24.80
2018-12-06T10:20:30.294Z,22.53
2018-12-06T10:22:57.049Z,20.93
2018-12-06T10:25:23.826Z,17.93
2018-12-06T10:27:50.601Z,24.55
2018-12-06T10:30:17.385Z,18.97
2018-12-06T10:32:44.219Z,19.93
2018-12-06T10:35:10.985Z,22.93
2018-12-06T10:37:37.756Z,28.50
2018-12-06T10:40:04.553Z,19.87
2018-12-06T10:42:31.313Z,21.80
2018-12-06T10:44:58.105Z,20.80
2018-12-06T10:47:24.877Z,21.90
2018-12-06T10:49:51.661Z,19.43
2018-12-06T10:52:18.429Z,17.43
2018-12-06T10:54:45.209Z,17.03
2018-12-06T10:57:11.990Z,26.23
2018-12-06T10:59:38.818Z,19.00
2018-12-06T11:02:11.196Z,23.90
2018-12-06T11:04:37.980Z,20.20
2018-12-06T11:07:05.906Z,15.97
2018-12-06T11:09:32.996Z,19.57
2018-12-06T11:11:59.743Z,18.37
2018-12-06T11:14:26.494Z,18.23
2018-12-06T11:16:53.276Z,17.57
2018-12-06T11:19:20.041Z,17.57
2018-12-06T11:21:46.817Z,16.70
2018-12-06T11:24:13.596Z,18.07
2018-12-06T11:26:40.372Z,19.10
2018-12-06T11:29:07.144Z,17.27
2018-12-06T11:31:33.922Z,19.30
2018-12-06T11:34:00.672Z,18.30
2018-12-06T11:36:27.425Z,20.47
2018-12-06T11:38:54.208Z,16.60
2018-12-06T11:41:20.965Z,14.50
2018-12-06T11:43:47.753Z,12.27
2018-12-06T11:46:14.504Z,14.87
2018-12-06T11:48:41.292Z,15.27
2018-12-06T11:51:08.061Z,18.67
2018-12-06T11:53:34.865Z,12.30
2018-12-06T11:56:01.637Z,18.67
2018-12-06T11:58:28.408Z,11.20
2018-12-06T12:00:55.172Z,15.87
2018-12-06T12:03:21.988Z,15.63
2018-12-06T12:05:48.757Z,17.13
2018-12-06T12:08:15.538Z,14.68
2018-12-06T12:10:42.284Z,14.43
2018-12-06T12:13:09.068Z,13.13
2018-12-06T12:15:35.884Z,12.77
2018-12-06T12:18:02.692Z,12.60
2018-12-06T12:20:29.447Z,10.93
2018-12-06T12:22:56.324Z,10.73
2018-12-06T12:25:23.088Z,11.90
2018-12-06T12:27:49.873Z,17.52
2018-12-06T12:30:16.638Z,10.90
2018-12-06T12:32:43.417Z,9.30
2018-12-06T12:35:10.181Z,10.10
2018-12-06T12:37:36.965Z,11.60
2018-12-06T12:40:05.624Z,9.73
2018-12-06T12:42:32.433Z,9.05
2018-12-06T12:44:59.192Z,9.70
2018-12-06T12:47:26.080Z,9.30
2018-12-06T12:49:52.864Z,10.20
2018-12-06T12:52:19.650Z,10.15
2018-12-06T12:54:46.428Z,7.07
2018-12-06T12:57:13.249Z,10.30
2018-12-06T12:59:40.005Z,8.07
2018-12-06T13:02:06.789Z,10.10
2018-12-06T13:04:33.547Z,9.20
2018-12-06T13:07:17.626Z,13.27
2018-12-06T13:09:44.434Z,15.93
2018-12-06T13:12:11.305Z,9.80
2018-12-06T13:14:38.071Z,10.03
2018-12-06T13:17:05.072Z,8.50
2018-12-06T13:19:31.936Z,10.73
2018-12-06T13:21:58.729Z,7.60
2018-12-06T13:24:25.545Z,6.23
2018-12-06T13:26:52.330Z,8.07
2018-12-06T13:29:19.094Z,6.57
2018-12-06T13:31:45.880Z,5.83
2018-12-06T13:34:12.644Z,10.00
2018-12-06T13:36:39.428Z,7.63
2018-12-06T13:39:06.214Z,8.03
2018-12-06T13:41:33.005Z,7.13
2018-12-06T13:43:59.789Z,10.77
2018-12-06T13:46:26.554Z,7.05
2018-12-06T13:48:53.329Z,7.97
2018-12-06T13:51:20.089Z,7.27
2018-12-06T13:53:46.870Z,9.65
2018-12-06T13:56:13.627Z,9.47
2018-12-06T13:58:40.405Z,9.33
2018-12-06T14:01:07.461Z,6.10
2018-12-06T14:03:33.990Z,7.03
2018-12-06T14:06:00.751Z,5.57
2018-12-06T14:08:27.531Z,6.63
2018-12-06T14:10:54.290Z,10.17
2018-12-06T14:13:23.686Z,9.30
2018-12-06T14:15:47.857Z,10.80
2018-12-06T14:18:14.644Z,8.13
2018-12-06T14:20:41.401Z,9.77
2018-12-06T14:23:08.196Z,7.13
2018-12-06T14:25:34.978Z,11.27
2018-12-06T14:28:01.756Z,9.27
2018-12-06T14:30:28.521Z,8.43
2018-12-06T14:32:55.369Z,8.57
2018-12-06T14:35:22.121Z,9.73
2018-12-06T14:37:48.921Z,10.83
2018-12-06T14:40:15.687Z,10.13
2018-12-06T14:42:42.501Z,8.60
2018-12-06T14:45:09.270Z,18.40
2018-12-06T14:47:36.049Z,8.47
2018-12-06T14:50:03.716Z,10.80
2018-12-06T14:52:30.493Z,9.10
2018-12-06T14:54:57.255Z,9.07
2018-12-06T14:57:24.077Z,10.00
2018-12-06T14:59:50.833Z,6.97
2018-12-06T15:02:17.613Z,14.00
2018-12-06T15:04:44.397Z,9.77
2018-12-06T15:07:11.153Z,9.90
2018-12-06T15:09:37.980Z,8.50
2018-12-06T15:12:04.720Z,9.53
2018-12-06T15:14:31.501Z,8.20
2018-12-06T15:16:58.309Z,11.00
2018-12-06T15:19:25.192Z,9.07
2018-12-06T15:21:51.899Z,7.70
2018-12-06T15:24:18.685Z,13.83
2018-12-06T15:26:45.477Z,8.10
2018-12-06T15:29:12.257Z,8.23
2018-12-06T15:31:39.056Z,13.23
2018-12-06T15:34:05.854Z,11.30
2018-12-06T15:36:32.612Z,6.03
2018-12-06T15:38:59.392Z,7.27
2018-12-06T15:41:26.161Z,7.10
2018-12-06T15:43:52.937Z,6.65
2018-12-06T15:46:19.796Z,10.90
2018-12-06T15:48:46.487Z,7.23
2018-12-06T15:51:13.256Z,8.60
2018-12-06T15:53:40.037Z,6.43
2018-12-06T15:56:06.801Z,5.73
2018-12-06T15:58:33.586Z,8.70
2018-12-06T16:01:00.349Z,8.53
2018-12-06T16:03:27.157Z,5.83
2018-12-06T16:05:54.030Z,9.97
2018-12-06T16:08:20.828Z,9.17
2018-12-06T16:10:47.592Z,9.48
2018-12-06T16:13:14.561Z,5.40
2018-12-06T16:15:41.353Z,8.80
2018-12-06T16:18:08.111Z,5.97
2018-12-06T16:20:34.897Z,9.60
2018-12-06T16:23:01.673Z,8.30
2018-12-06T16:25:28.452Z,7.30
2018-12-06T16:27:55.221Z,10.83
2018-12-06T16:30:21.996Z,4.90
2018-12-06T16:32:48.761Z,6.07
2018-12-06T16:35:15.549Z,8.13
2018-12-06T16:37:42.365Z,3.50
2018-12-06T16:40:09.177Z,3.93
2018-12-06T16:42:35.957Z,4.10
2018-12-06T16:45:02.786Z,4.67
2018-12-06T16:47:29.534Z,4.00
2018-12-06T16:49:56.313Z,12.60
2018-12-06T16:52:23.089Z,3.60
2018-12-06T16:54:49.898Z,9.77
2018-12-06T16:57:16.656Z,3.80
2018-12-06T16:59:43.430Z,4.90
2018-12-06T17:02:10.193Z,5.20
2018-12-06T17:04:36.976Z,3.60
2018-12-06T17:07:03.738Z,5.43
2018-12-06T17:09:30.521Z,4.47
2018-12-06T17:11:57.354Z,4.57
2018-12-06T17:14:24.136Z,3.30
2018-12-06T17:16:50.906Z,6.50
2018-12-06T17:19:17.686Z,3.17
2018-12-06T17:21:44.456Z,3.47
2018-12-06T17:24:11.238Z,3.70
2018-12-06T17:26:38.000Z,4.93
2018-12-06T17:29:04.850Z,3.87
2018-12-06T17:31:31.604Z,3.58
2018-12-06T17:33:58.372Z,4.53
2018-12-06T17:36:25.153Z,2.70
2018-12-06T17:38:51.986Z,3.80
2018-12-06T17:41:18.769Z,3.57
2018-12-06T17:43:45.528Z,3.30
2018-12-06T17:46:12.309Z,2.40
2018-12-06T17:48:39.075Z,3.23
2018-12-06T17:51:05.849Z,2.30
2018-12-06T17:53:32.617Z,3.10
2018-12-06T17:55:59.394Z,2.37
2018-12-06T17:58:26.157Z,4.53
2018-12-06T18:00:52.941Z,4.97
2018-12-06T18:03:19.728Z,5.63
2018-12-06T18:05:46.512Z,3.43
2018-12-06T18:08:13.273Z,3.40
2018-12-06T18:10:40.053Z,2.77
2018-12-06T18:13:06.817Z,2.30
2018-12-06T18:15:33.601Z,2.67
2018-12-06T18:18:00.364Z,3.13
2018-12-06T18:20:27.149Z,3.10
2018-12-06T18:22:53.925Z,2.90
2018-12-06T18:25:20.701Z,4.33
2018-12-06T18:27:47.554Z,3.90
2018-12-06T18:30:14.333Z,4.37
2018-12-06T18:32:41.094Z,4.00
2018-12-06T18:35:08.149Z,6.57
2018-12-06T18:37:34.913Z,6.50
2018-12-06T18:40:01.757Z,3.43
2018-12-06T18:42:28.529Z,4.23
2018-12-06T18:44:55.305Z,3.90
2018-12-06T18:47:22.149Z,6.70
2018-12-06T18:52:17.369Z,4.00
2018-12-06T18:54:44.128Z,3.50
2018-12-06T18:57:10.906Z,2.60
2018-12-06T18:59:37.673Z,2.87
2018-12-06T19:02:04.552Z,6.37
2018-12-06T19:04:31.333Z,5.57
2018-12-06T19:06:58.109Z,4.50
2018-12-06T19:09:24.902Z,3.73
2018-12-06T19:11:51.687Z,5.53
2018-12-06T19:14:21.810Z,3.10
2018-12-06T19:16:45.222Z,4.40
2018-12-06T19:19:12.026Z,3.53
2018-12-06T19:21:38.801Z,3.27
2018-12-06T19:24:05.564Z,4.33
2018-12-06T19:26:32.336Z,3.47
2018-12-06T19:28:59.175Z,10.13
2018-12-06T19:31:26.114Z,3.20
2018-12-06T19:33:52.864Z,4.97
2018-12-06T19:36:19.750Z,4.33
2018-12-06T19:38:46.473Z,4.87
2018-12-06T19:41:13.244Z,9.23
2018-12-06T19:43:40.004Z,3.93
2018-12-06T19:46:06.775Z,3.07
2018-12-06T19:48:33.540Z,3.27
2018-12-06T19:51:00.316Z,3.10
2018-12-06T19:53:27.080Z,3.37
2018-12-06T19:55:53.856Z,3.40
2018-12-06T19:58:20.681Z,2.80
2018-12-06T20:00:47.460Z,3.47
2018-12-06T20:03:14.292Z,3.80
2018-12-06T20:05:41.069Z,5.83
2018-12-06T20:08:07.835Z,5.33
2018-12-06T20:10:34.621Z,4.87
2018-12-06T20:13:01.381Z,3.10
2018-12-06T20:15:28.138Z,3.60
2018-12-06T20:17:54.929Z,2.77
2018-12-06T20:20:23.784Z,3.53
2018-12-06T20:22:48.461Z,4.30
2018-12-06T20:25:15.221Z,5.03
2018-12-06T20:27:41.997Z,6.67
2018-12-06T20:30:08.757Z,4.33
2018-12-06T20:32:35.542Z,3.63
2018-12-06T20:35:02.322Z,3.30
2018-12-06T20:37:29.141Z,3.03
2018-12-06T20:39:55.905Z,3.83
2018-12-06T20:42:22.675Z,3.70
2018-12-06T20:44:49.461Z,7.07
2018-12-06T20:47:17.425Z,3.90
2018-12-06T20:49:44.188Z,3.67
2018-12-06T20:52:10.958Z,4.00
2018-12-06T20:54:37.720Z,4.30
2018-12-06T20:57:04.492Z,3.80
2018-12-06T20:59:31.268Z,4.30
2018-12-06T21:01:58.064Z,3.53
2018-12-06T21:04:24.860Z,3.50
2018-12-06T21:06:51.642Z,3.27
2018-12-06T21:09:18.769Z,3.70
2018-12-06T21:11:45.181Z,3.83
2018-12-06T21:14:11.940Z,4.50
2018-12-06T21:16:38.716Z,5.63
2018-12-06T21:19:05.471Z,4.00
2018-12-06T21:21:32.397Z,3.90
2018-12-06T21:23:59.165Z,4.93
2018-12-06T21:26:26.443Z,4.97
2018-12-06T21:28:52.688Z,4.10
2018-12-06T21:31:19.477Z,3.90
2018-12-06T21:33:46.221Z,7.10
2018-12-06T21:36:12.981Z,3.53
2018-12-06T21:38:39.758Z,4.37
2018-12-06T21:41:06.523Z,3.43
2018-12-06T21:43:33.296Z,4.53
2018-12-06T21:46:00.057Z,3.83
2018-12-06T21:48:26.841Z,5.73
2018-12-06T21:50:53.596Z,5.47
2018-12-06T21:53:20.405Z,5.00
2018-12-06T21:55:47.159Z,3.83
2018-12-06T21:58:13.945Z,6.20
2018-12-06T22:00:40.705Z,3.30
2018-12-06T22:03:07.485Z,3.97
2018-12-06T22:05:34.240Z,4.20
2018-12-06T22:08:01.129Z,3.40
2018-12-06T22:10:27.889Z,4.20
2018-12-06T22:12:54.673Z,4.37
2018-12-06T22:15:21.484Z,3.67
2018-12-06T22:17:48.272Z,3.47
2018-12-06T22:20:15.012Z,3.40
2018-12-06T22:22:41.790Z,3.27
2018-12-06T22:25:08.664Z,2.87
2018-12-06T22:27:35.436Z,5.43
2018-12-06T22:30:02.204Z,3.23
2018-12-06T22:32:28.980Z,3.37
2018-12-06T22:34:55.732Z,3.80
2018-12-06T22:37:22.562Z,3.27
2018-12-06T22:39:49.327Z,5.22
2018-12-06T22:42:16.104Z,3.57
2018-12-06T22:44:42.857Z,4.10
2018-12-06T22:47:09.703Z,3.00
2018-12-06T22:49:36.388Z,2.70
2018-12-06T22:52:03.164Z,3.13
2018-12-06T22:54:29.929Z,2.98
2018-12-06T22:56:56.712Z,4.80
2018-12-06T22:59:23.468Z,4.17
2018-12-06T23:01:50.253Z,3.35
2018-12-06T23:04:17.040Z,4.70
2018-12-06T23:06:43.820Z,3.50
2018-12-06T23:09:10.577Z,3.10
2018-12-06T23:11:37.600Z,3.37
2018-12-06T23:14:04.457Z,7.03
2018-12-06T23:16:31.224Z,2.60
2018-12-06T23:18:58.089Z,2.30
2018-12-06T23:21:24.888Z,2.90
2018-12-06T23:23:51.661Z,3.52
2018-12-06T23:26:18.460Z,3.30
2018-12-06T23:28:45.221Z,3.50
2018-12-06T23:31:11.985Z,2.57
2018-12-06T23:33:38.800Z,2.43
2018-12-06T23:36:05.576Z,3.93
2018-12-06T23:38:32.336Z,3.10
2018-12-06T23:40:59.116Z,5.50
2018-12-06T23:43:25.872Z,2.40
2018-12-06T23:45:52.656Z,2.90
2018-12-06T23:48:19.421Z,2.10
2018-12-06T23:50:46.202Z,2.80
2018-12-06T23:53:12.953Z,2.60
2018-12-06T23:55:39.975Z,2.50
2018-12-06T23:58:06.732Z,3.33
